DTNH

Enfidha - Hammamet International Airport

Enfidha, Tunisia
METAR DTNH 220500Z 23002KT 6000 BR NSC 19/19 Q1015
Observed Flight Rules
Jun-22 @ 05:00 UTC (39 minutes ago) Marginal Visual Flight Rules
Wind Visibility Clouds Conditions
230° at 2 knots 6,003 meters
  • Clear skies
  • Mist
Temperatures Readings
Current 19°C / 66°F
Dewpoint 19°C / 66°F
Humidity 100%
Altimeter 29.97" Hg
Pressure 1015 hPa
Elevation 2
METAR DTNH 220500Z 23002KT 6000 BR NSC 19/19 Q1015
Observed Flight Rules
Jun-22 @ 05:00 UTC
(39 minutes ago)
MVFR
Wind Visibility
230° at 2 knots 6,003 meters
Clouds
  • Clear skies
Conditions
  • Mist
Temperature Dewpoint
19°C / 66°F 19°C / 66°F
Humidity Altimeter Pressure
100% 29.97" Hg 1015 hPa